EWG4TU LSZB-EDDS
Flight info
| Callsign | EWG4TU |
|---|---|
| Flight time | N/A |
| Altitude | 24000 |
| Route | MONIN DCT DITON T163 ZUE DCT REUTL DCT DITBA DITBA1E |
| Aircraft | A20N/M-SDE2E3FGHIRWXY/LB1 |
Departure
| Time | 2026-04-30 08:24 |
|---|---|
| Airport | Bern Airport (LSZB) |
Arrival
| Time | N/A |
|---|---|
| Airport | Stuttgart Airport (EDDS) |
| Time | Latitude | Longitude | Altitude | Speed | Heading |
|---|---|---|---|---|---|
| 2026-04-30 08:03 | 46.91271 | 7.50118 | 1680 ft | 0 kts | 90° |
| 2026-04-30 08:20 | 46.91271 | 7.50122 | 1680 ft | 1 kts | 108° |
| 2026-04-30 08:20 | 46.91258 | 7.50122 | 1680 ft | 2 kts | 229° |
| 2026-04-30 08:21 | 46.91258 | 7.50075 | 1680 ft | 5 kts | 280° |
| 2026-04-30 08:21 | 46.91279 | 7.50021 | 1680 ft | 4 kts | 282° |
| 2026-04-30 08:21 | 46.91255 | 7.49962 | 1679 ft | 7 kts | 230° |
| 2026-04-30 08:21 | 46.91209 | 7.49963 | 1680 ft | 10 kts | 145° |
| 2026-04-30 08:22 | 46.91092 | 7.50106 | 1681 ft | 30 kts | 140° |
| 2026-04-30 08:22 | 46.90911 | 7.50327 | 1682 ft | 33 kts | 140° |
| 2026-04-30 08:22 | 46.90766 | 7.50503 | 1683 ft | 9 kts | 141° |
| 2026-04-30 08:22 | 46.90732 | 7.50573 | 1683 ft | 6 kts | 121° |
| 2026-04-30 08:23 | 46.90719 | 7.50561 | 1683 ft | 3 kts | 311° |
| 2026-04-30 08:23 | 46.90721 | 7.50559 | 1683 ft | 0 kts | 320° |
| 2026-04-30 08:23 | 46.90844 | 7.50411 | 1682 ft | 62 kts | 320° |
| 2026-04-30 08:24 | 46.91378 | 7.49759 | 1679 ft | 134 kts | 320° |
| 2026-04-30 08:24 | 46.92182 | 7.48780 | 2026 ft | 157 kts | 321° |
| 2026-04-30 08:24 | 46.93034 | 7.47760 | 2663 ft | 163 kts | 322° |
| 2026-04-30 08:24 | 46.93898 | 7.46704 | 3377 ft | 165 kts | 323° |
| 2026-04-30 08:25 | 46.94820 | 7.45593 | 3808 ft | 182 kts | 323° |
| 2026-04-30 08:25 | 46.95823 | 7.44375 | 4382 ft | 193 kts | 322° |
| 2026-04-30 08:25 | 46.96858 | 7.43139 | 5108 ft | 194 kts | 328° |
| 2026-04-30 08:25 | 46.98107 | 7.42629 | 5801 ft | 191 kts | 7° |
| 2026-04-30 08:26 | 46.99329 | 7.43393 | 6298 ft | 202 kts | 44° |
| 2026-04-30 08:26 | 47.00086 | 7.45190 | 6768 ft | 217 kts | 64° |
| 2026-04-30 08:26 | 47.00784 | 7.47281 | 7147 ft | 242 kts | 63° |
| 2026-04-30 08:26 | 47.01572 | 7.49552 | 7673 ft | 260 kts | 62° |
| 2026-04-30 08:27 | 47.02416 | 7.51969 | 8292 ft | 274 kts | 62° |
| 2026-04-30 08:27 | 47.03285 | 7.54463 | 9144 ft | 279 kts | 62° |
| 2026-04-30 08:27 | 47.04161 | 7.56984 | 10006 ft | 282 kts | 62° |
| 2026-04-30 08:27 | 47.05050 | 7.59549 | 10799 ft | 288 kts | 62° |
| 2026-04-30 08:28 | 47.05980 | 7.62234 | 11277 ft | 305 kts | 62° |
| 2026-04-30 08:28 | 47.06966 | 7.65081 | 11685 ft | 323 kts | 63° |
| 2026-04-30 08:28 | 47.08008 | 7.68094 | 12055 ft | 341 kts | 63° |
| 2026-04-30 08:28 | 47.09106 | 7.71276 | 12383 ft | 359 kts | 63° |
| 2026-04-30 08:29 | 47.10259 | 7.74621 | 12760 ft | 373 kts | 63° |
| 2026-04-30 08:29 | 47.11434 | 7.78038 | 13450 ft | 377 kts | 63° |
| 2026-04-30 08:29 | 47.12610 | 7.81461 | 14214 ft | 379 kts | 63° |
| 2026-04-30 08:29 | 47.13793 | 7.84912 | 14902 ft | 381 kts | 63° |